Aérodrome :
LOGIN :

S'inscrire | Disclaimer

   EN    FR    IT 

 










Légende :    VFR   VFR Marginal   IFR   IFR Intensif   IFR Très Intensif
Visi : 
Plafond : 
>= 8 km
>= 3000ft
5 à 8 km
1000 à 3000 ft
1500m à 5 km
500 à 1000 ft
800 à 1500m
200 à 500 ft
< 800m
< 200 ft
Symboles :   Orages  Brouillard  Fortes neiges  Fortes précipitations  Vent > 20 kt
SIGMETs :   Divers  Orages  Givrage  Turbulence  Onde Orograph.  Cendres Volcan.







- Altitude de l'aérodrome : 238 ft
- Code IATA : FAB
- Voir les cartes d'approche


EGLF - Farnborough

DERNIER METAR :
  • 281150Z 02009KT 340V050 9999 FEW008 BKN018 16/14 Q0997

METARs EXPIRÉS :
  • 281120Z 02008KT 350V060 9999 FEW012 BKN015 17/14 Q0997
  • 281050Z 01007KT 340V060 9999 FEW014 BKN024 17/15 Q0997
  • 281020Z 01006KT 9999 FEW013 BKN020 17/15 Q0998
  • 280950Z 03007KT 7000 -DZ FEW008 BKN013 15/15 Q0998
  • 280920Z 03007KT 8000 BKN010 16/15 Q0998

TAF TAF EGLF
Valide du 28 à 12h jusqu'au 28 à 21h UTC


281105Z 2812/2821 36005KT 9999 SCT012
PROB40
TEMPO 2812/2821 9000 -SHRA BKN012
ATIS : +44 09063 800 400 (*282)
Pas de NOTAMs connus pour ce terrain.



MET'MAP, la Météo Aéronautique d'un coup d'oeil ! - Copyright ORBIFLY Décembre 2007 - Disclaimer

ORBIFLY MET'MAP TEAM :

Programmation & Développement : Alexandra Zaïnal
Conception & Développement : Baudouin d'Aumeries
Co-Programmation & Développement : Marc-Olivier Méhu
Soutien technique & logistique : Manuel Goepfert

Contact : metmap@orbifly.com




SOURCES & CREDITS :

   NOAA